Time;durP1;ratioP1;P1;durP2;ratioP2;P2;SDS_P1;SDS_P2;PMS_P1;PMS_P2;Temp;Humidity;BMP_temperature;BMP_pressure;BME280_temperature;BME280_humidity;BME280_pressure;Samples;Min_cycle;Max_cycle;Signal;HPM_P1;HPM_P2
2021/10/29 00:02:26;;;;;;;15.43;11.65;;;;;;;12.06;87.79;100812.81;1660058;86;21064;-76
2021/10/29 00:04:55;;;;;;;13.22;11.93;;;;;;;12.06;88.12;100803.90;1637537;86;21190;-74
2021/10/29 00:07:22;;;;;;;14.28;11.50;;;;;;;12.06;88.11;100812.81;1642224;85;21581;-75
2021/10/29 00:09:50;;;;;;;13.15;11.03;;;;;;;12.06;88.18;100814.16;1661178;85;21479;-74
2021/10/29 00:12:18;;;;;;;12.80;11.48;;;;;;;12.06;88.44;100809.30;1672600;85;21008;-76
2021/10/29 00:14:45;;;;;;;12.63;11.35;;;;;;;12.06;88.67;100812.81;1650963;85;21044;-75
2021/10/29 00:17:11;;;;;;;12.88;11.38;;;;;;;12.11;88.66;100810.24;1684635;84;21073;-73
2021/10/29 00:19:38;;;;;;;14.18;11.97;;;;;;;12.19;88.54;100813.11;1674277;85;20996;-76
2021/10/29 00:22:04;;;;;;;14.87;11.33;;;;;;;12.22;88.37;100816.72;1645691;86;21032;-74
2021/10/29 00:24:32;;;;;;;13.65;11.97;;;;;;;12.26;88.28;100814.36;1653050;85;21013;-74
2021/10/29 00:26:59;;;;;;;14.03;11.12;;;;;;;12.28;88.08;100810.92;1638252;86;21036;-74
2021/10/29 00:29:25;;;;;;;14.10;12.33;;;;;;;12.29;88.00;100812.54;1659429;86;21151;-72
2021/10/29 00:31:51;;;;;;;13.38;11.65;;;;;;;12.29;87.99;100813.36;1638476;86;21612;-70
2021/10/29 00:34:18;;;;;;;13.25;11.88;;;;;;;12.33;88.05;100813.70;1657238;86;21046;-70
2021/10/29 00:36:45;;;;;;;14.47;12.35;;;;;;;12.39;88.08;100810.08;1627263;87;21065;-71
2021/10/29 00:39:12;;;;;;;14.05;12.15;;;;;;;12.45;87.98;100813.20;1625476;86;21029;-69
2021/10/29 00:41:39;;;;;;;14.63;11.28;;;;;;;12.51;87.84;100818.49;1636493;86;21109;-73
2021/10/29 00:44:06;;;;;;;15.18;13.53;;;;;;;12.54;87.56;100820.71;1616360;87;21015;-75
2021/10/29 00:46:32;;;;;;;15.23;11.75;;;;;;;12.56;87.34;100819.96;1637975;86;20955;-71
2021/10/29 00:48:59;;;;;;;16.67;12.88;;;;;;;12.55;87.06;100824.23;1633186;86;21024;-70
2021/10/29 00:51:25;;;;;;;14.63;12.43;;;;;;;12.54;86.91;100825.28;1646950;86;21037;-71
2021/10/29 00:53:52;;;;;;;16.35;11.97;;;;;;;12.51;86.89;100821.19;1631489;86;21900;-72
2021/10/29 00:56:18;;;;;;;17.82;13.03;;;;;;;12.56;87.00;100827.23;1646686;85;20925;-70
2021/10/29 00:58:46;;;;;;;14.83;12.00;;;;;;;12.62;86.95;100827.09;1620649;86;21523;-70
2021/10/29 01:01:12;;;;;;;14.65;11.35;;;;;;;12.66;86.70;100826.13;1629945;87;21020;-70
2021/10/29 01:03:39;;;;;;;15.55;12.68;;;;;;;12.69;86.63;100826.98;1620855;88;21047;-70
2021/10/29 01:06:07;;;;;;;13.80;12.25;;;;;;;12.68;86.60;100822.11;1630018;87;22191;-70
2021/10/29 01:08:37;;;;;;;16.62;12.58;;;;;;;12.70;86.53;100819.71;1629950;87;20933;-70
2021/10/29 01:11:04;;;;;;;18.32;12.73;;;;;;;12.70;86.52;100819.71;1640039;86;21088;-68
2021/10/29 01:13:32;;;;;;;16.37;12.78;;;;;;;12.69;86.50;100812.14;1631643;86;21005;-73
2021/10/29 01:16:00;;;;;;;16.87;13.93;;;;;;;12.70;86.48;100808.39;1639631;85;21598;-74
2021/10/29 01:18:26;;;;;;;18.32;13.80;;;;;;;12.73;86.42;100807.08;1613731;87;21978;-74
2021/10/29 01:20:54;;;;;;;18.80;13.22;;;;;;;12.76;86.28;100810.67;1636118;86;21009;-73
2021/10/29 01:23:21;;;;;;;16.37;13.68;;;;;;;12.77;86.00;100809.06;1634146;87;21041;-73
2021/10/29 01:25:47;;;;;;;20.85;13.35;;;;;;;12.78;85.87;100807.19;1613592;87;20953;-74
2021/10/29 01:28:14;;;;;;;17.40;14.50;;;;;;;12.76;85.84;100812.03;1613820;87;20997;-75
2021/10/29 01:30:41;;;;;;;16.80;12.78;;;;;;;12.75;85.84;100814.43;1634259;87;22772;-75
2021/10/29 01:33:08;;;;;;;13.93;12.43;;;;;;;12.78;85.72;100813.42;1626007;86;21208;-74
2021/10/29 01:35:35;;;;;;;17.25;13.93;;;;;;;12.82;85.54;100815.94;1639717;86;20972;-75
2021/10/29 01:38:02;;;;;;;18.40;12.88;;;;;;;12.87;85.56;100815.22;1645069;85;20949;-74
2021/10/29 01:40:28;;;;;;;14.75;11.68;;;;;;;12.95;85.43;100814.31;1634298;87;21045;-74
2021/10/29 01:42:55;;;;;;;17.67;11.57;;;;;;;12.97;85.16;100810.86;1630013;86;21110;-74
2021/10/29 01:45:21;;;;;;;15.25;12.60;;;;;;;12.95;84.90;100814.88;1660862;86;21034;-74
2021/10/29 01:47:49;;;;;;;16.80;12.28;;;;;;;12.85;84.78;100814.13;1661309;86;21532;-76
2021/10/29 01:50:15;;;;;;;16.17;13.15;;;;;;;12.79;84.98;100816.41;1661150;85;21122;-74
2021/10/29 01:52:42;;;;;;;18.17;11.20;;;;;;;12.71;85.37;100818.11;1661132;86;22234;-75
2021/10/29 01:55:09;;;;;;;14.87;10.90;;;;;;;12.62;86.03;100818.17;1661158;86;21123;-76
2021/10/29 01:57:35;;;;;;;15.65;12.53;;;;;;;12.51;86.37;100817.67;1661385;86;20992;-76
2021/10/29 02:00:06;;;;;;;12.80;11.50;;;;;;;12.50;86.64;100814.67;1622469;86;20985;-75
2021/10/29 02:02:35;;;;;;;13.95;10.68;;;;;;;12.49;86.80;100827.34;1638476;86;21047;-75
2021/10/29 02:05:02;;;;;;;15.35;10.38;;;;;;;12.47;86.89;100821.34;1651204;86;21129;-74
2021/10/29 02:07:29;;;;;;;12.28;9.18;;;;;;;12.43;87.23;100823.39;1610880;88;21123;-74
2021/10/29 02:09:55;;;;;;;15.72;11.05;;;;;;;12.41;87.42;100825.00;1633519;86;21105;-74
2021/10/29 02:12:22;;;;;;;12.55;10.75;;;;;;;12.32;87.89;100822.36;1599551;88;21622;-73
2021/10/29 02:14:48;;;;;;;12.40;9.43;;;;;;;12.26;88.58;100830.55;1649450;86;21069;-74
2021/10/29 02:17:15;;;;;;;12.50;11.08;;;;;;;12.19;88.64;100830.13;1665254;85;21040;-74
2021/10/29 02:19:41;;;;;;;9.38;8.48;;;;;;;12.10;89.08;100827.99;1687497;84;21064;-76
2021/10/29 02:22:07;;;;;;;11.28;10.18;;;;;;;12.05;89.96;100830.05;1678338;84;20968;-75
2021/10/29 02:24:34;;;;;;;10.68;9.68;;;;;;;11.96;89.94;100826.56;1638341;86;21031;-76
2021/10/29 02:27:02;;;;;;;10.45;9.35;;;;;;;11.91;90.44;100834.00;1678524;85;21582;-76
2021/10/29 02:29:29;;;;;;;13.83;11.35;;;;;;;11.89;90.44;100837.47;1676742;84;21014;-76
2021/10/29 02:31:55;;;;;;;8.50;7.60;;;;;;;11.88;91.29;100839.86;1651859;86;22064;-75
2021/10/29 02:34:21;;;;;;;10.60;9.58;;;;;;;11.85;91.45;100837.61;1627484;87;21069;-74
2021/10/29 02:36:48;;;;;;;12.23;10.85;;;;;;;11.80;91.61;100843.69;1633347;86;21058;-74
2021/10/29 02:39:14;;;;;;;11.68;10.20;;;;;;;11.78;92.17;100846.33;1648725;86;20975;-74
2021/10/29 02:41:41;;;;;;;14.55;11.28;;;;;;;11.75;92.54;100844.07;1660234;85;21028;-75
2021/10/29 02:44:07;;;;;;;12.68;11.22;;;;;;;11.67;92.77;100842.50;1665551;85;21060;-74
2021/10/29 02:46:37;;;;;;;13.10;11.85;;;;;;;11.63;93.28;100845.89;1662284;86;21619;-74
2021/10/29 02:49:05;;;;;;;14.28;12.68;;;;;;;11.59;93.54;100843.36;1671022;85;21080;-74
2021/10/29 02:51:33;;;;;;;11.95;10.85;;;;;;;11.56;94.19;100850.56;1684571;84;20979;-75
2021/10/29 02:53:59;;;;;;;12.82;11.63;;;;;;;11.54;94.25;100842.69;1698435;83;21027;-75
2021/10/29 02:56:26;;;;;;;14.87;13.30;;;;;;;11.56;94.05;100851.35;1698169;84;21206;-74
2021/10/29 02:58:52;;;;;;;13.03;11.55;;;;;;;11.62;94.01;100844.23;1697912;84;21006;-73
2021/10/29 03:01:18;;;;;;;12.78;11.57;;;;;;;11.71;93.87;100842.86;1667360;85;21591;-74
2021/10/29 03:03:45;;;;;;;11.22;10.20;;;;;;;11.80;93.51;100848.25;1681766;85;20917;-73
2021/10/29 03:06:11;;;;;;;12.43;11.08;;;;;;;11.79;92.49;100847.45;1690447;84;21008;-73
2021/10/29 03:08:37;;;;;;;12.95;11.65;;;;;;;11.75;92.29;100841.38;1660678;84;21101;-74
2021/10/29 03:11:04;;;;;;;12.73;11.43;;;;;;;11.75;92.15;100842.73;1698156;83;21032;-75
2021/10/29 03:13:31;;;;;;;11.63;10.43;;;;;;;11.74;91.99;100842.45;1684202;84;21091;-73
2021/10/29 03:15:57;;;;;;;12.15;11.10;;;;;;;11.71;92.03;100836.13;1698173;83;21574;-73
2021/10/29 03:18:24;;;;;;;11.38;10.30;;;;;;;11.73;91.99;100838.11;1698421;83;21079;-73
2021/10/29 03:20:52;;;;;;;10.50;9.53;;;;;;;11.72;91.84;100839.98;1672233;84;20992;-74
2021/10/29 03:23:19;;;;;;;14.13;11.05;;;;;;;11.69;91.82;100834.20;1670076;85;21027;-74
2021/10/29 03:25:46;;;;;;;13.15;11.70;;;;;;;11.72;91.84;100837.77;1663963;85;21069;-73
2021/10/29 03:28:13;;;;;;;19.30;12.63;;;;;;;11.77;91.69;100838.77;1697188;83;21031;-73
2021/10/29 03:30:39;;;;;;;12.63;11.38;;;;;;;11.84;91.35;100843.25;1705162;83;21547;-73
2021/10/29 03:33:06;;;;;;;12.78;11.63;;;;;;;11.91;91.16;100836.69;1696481;84;21916;-73
2021/10/29 03:35:32;;;;;;;15.53;13.90;;;;;;;12.02;90.84;100844.52;1696473;84;21008;-74
2021/10/29 03:38:08;;;;;;;18.25;15.65;;;;;;;12.12;90.42;100844.78;1667029;85;21008;-74
2021/10/29 03:45:44;;;;;;;24.70;21.90;;;;;;;12.27;88.73;100853.25;1693153;84;21155;-75
2021/10/29 03:48:03;;;;;;;25.52;22.62;;;;;;;12.26;88.36;100859.70;1694266;84;21490;-74
2021/10/29 03:50:34;;;;;;;26.75;23.62;;;;;;;12.28;87.95;100860.27;1646793;85;21069;-75
2021/10/29 03:53:05;;;;;;;29.12;26.02;;;;;;;12.28;87.59;100863.52;1654492;86;21021;-75
2021/10/29 03:55:32;;;;;;;30.45;24.67;;;;;;;12.32;87.37;100860.65;1667883;85;21072;-74
2021/10/29 03:57:55;;;;;;;46.68;40.28;;;;;;;12.36;87.09;100863.17;1653926;86;21107;-74
2021/10/29 04:00:28;;;;;;;41.13;35.15;;;;;;;12.40;86.74;100861.13;1666954;85;21014;-75
2021/10/29 04:02:50;;;;;;;42.35;37.75;;;;;;;12.44;86.39;100863.64;1648248;86;20952;-74
2021/10/29 04:05:16;;;;;;;36.10;32.23;;;;;;;12.45;85.90;100864.47;1667971;85;21178;-74
2021/10/29 04:07:42;;;;;;;43.15;31.75;;;;;;;12.41;85.35;100867.34;1667977;84;21046;-72
2021/10/29 04:10:09;;;;;;;28.92;22.15;;;;;;;12.33;84.38;100869.02;1667407;85;21090;-74
2021/10/29 04:12:38;;;;;;;32.48;27.32;;;;;;;12.18;83.62;100870.84;1668682;85;21528;-75
2021/10/29 04:15:05;;;;;;;79.70;67.97;;;;;;;12.10;83.68;100867.92;1668373;85;20985;-73
2021/10/29 04:17:32;;;;;;;70.25;59.45;;;;;;;12.08;84.20;100870.58;1668297;84;21017;-71
2021/10/29 04:19:58;;;;;;;42.08;37.58;;;;;;;12.12;84.54;100874.45;1649147;86;21023;-75
2021/10/29 04:22:24;;;;;;;45.20;38.85;;;;;;;12.09;84.24;100882.45;1666576;85;21112;-73
2021/10/29 04:24:51;;;;;;;43.55;38.10;;;;;;;12.02;84.22;100884.45;1640579;86;20918;-73
2021/10/29 04:27:23;;;;;;;40.90;33.23;;;;;;;12.01;84.31;100880.09;1667914;84;21533;-74
2021/10/29 04:29:50;;;;;;;40.25;34.08;;;;;;;11.99;84.14;100887.58;1640332;86;21552;-73
2021/10/29 04:32:16;;;;;;;38.10;32.53;;;;;;;11.97;83.95;100887.53;1668780;86;20953;-73
2021/10/29 04:34:43;;;;;;;38.15;32.73;;;;;;;11.93;84.14;100885.83;1668248;85;21201;-74
2021/10/29 04:37:09;;;;;;;38.53;34.23;;;;;;;11.90;84.32;100885.44;1668305;85;21069;-74
2021/10/29 04:39:37;;;;;;;40.43;36.15;;;;;;;11.88;84.42;100887.04;1651117;86;21019;-76
2021/10/29 04:42:05;;;;;;;40.43;36.03;;;;;;;11.91;84.50;100896.00;1666568;86;21548;-75
2021/10/29 04:44:32;;;;;;;41.28;34.67;;;;;;;11.91;84.38;100893.83;1640559;86;21021;-75
2021/10/29 04:46:58;;;;;;;39.38;34.90;;;;;;;11.88;84.32;100896.47;1668354;86;21044;-77
2021/10/29 04:49:24;;;;;;;38.80;31.75;;;;;;;11.84;84.37;100897.98;1668023;85;20946;-78
2021/10/29 04:51:51;;;;;;;35.00;29.85;;;;;;;11.80;84.51;100901.64;1689844;83;20963;-76
2021/10/29 04:54:17;;;;;;;36.23;30.40;;;;;;;11.78;84.71;100898.89;1694278;84;21019;-77
2021/10/29 04:56:44;;;;;;;40.80;31.93;;;;;;;11.79;84.92;100896.50;1694514;84;21513;-75
2021/10/29 04:59:13;;;;;;;43.50;32.40;;;;;;;11.84;85.02;100907.94;1704725;84;21573;-72
2021/10/29 05:01:39;;;;;;;35.50;28.35;;;;;;;11.89;84.90;100900.00;1694387;84;21049;-75
2021/10/29 05:04:05;;;;;;;38.28;28.92;;;;;;;11.90;84.45;100901.62;1683406;84;21097;-75
2021/10/29 05:06:33;;;;;;;33.25;28.45;;;;;;;11.88;84.09;100910.47;1666366;85;21064;-75
2021/10/29 05:08:59;;;;;;;32.58;27.98;;;;;;;11.79;83.99;100904.59;1667271;84;21565;-75
2021/10/29 05:11:26;;;;;;;29.50;26.00;;;;;;;11.71;83.84;100907.55;1640913;86;21549;-75
2021/10/29 05:13:52;;;;;;;19.70;17.60;;;;;;;11.64;83.71;100909.52;1666192;85;21518;-77
2021/10/29 05:16:18;;;;;;;20.82;17.65;;;;;;;11.47;82.70;100908.47;1666592;86;21044;-76
2021/10/29 05:18:45;;;;;;;26.87;19.15;;;;;;;11.24;81.93;100905.95;1667768;84;21025;-76
2021/10/29 05:21:11;;;;;;;26.73;18.55;;;;;;;11.04;82.31;100907.20;1694737;84;21079;-77
2021/10/29 05:23:38;;;;;;;18.65;16.32;;;;;;;10.99;82.50;100914.59;1694306;84;21933;-77
2021/10/29 05:26:05;;;;;;;21.05;16.37;;;;;;;10.92;82.53;100911.16;1694689;84;20916;-79
2021/10/29 05:28:32;;;;;;;17.42;15.68;;;;;;;10.81;82.44;100923.47;1694818;84;21004;-78
2021/10/29 05:30:58;;;;;;;19.62;17.70;;;;;;;10.67;82.72;100921.94;1673297;84;21087;-78
2021/10/29 05:33:24;;;;;;;30.37;22.55;;;;;;;10.50;82.66;100922.20;1694862;84;21122;-79
2021/10/29 05:35:50;;;;;;;27.52;19.07;;;;;;;10.34;82.93;100924.07;1694446;84;21056;-76
2021/10/29 05:38:17;;;;;;;32.55;19.73;;;;;;;10.26;83.28;100930.55;1694647;84;20971;-78
2021/10/29 05:40:44;;;;;;;26.23;18.90;;;;;;;10.20;83.51;100935.96;1693827;84;21478;-80
2021/10/29 05:43:10;;;;;;;24.25;21.07;;;;;;;10.18;83.62;100943.41;1679111;84;21529;-76
2021/10/29 05:45:36;;;;;;;31.48;26.48;;;;;;;10.13;83.77;100941.34;1640779;86;21090;-77
2021/10/29 05:48:05;;;;;;;34.90;28.57;;;;;;;10.20;84.77;100946.20;1640870;86;21112;-77
2021/10/29 05:50:31;;;;;;;30.45;24.47;;;;;;;10.29;85.04;100944.90;1691664;84;20988;-77
2021/10/29 05:53:01;;;;;;;29.25;25.72;;;;;;;10.32;85.19;100949.83;1681538;84;21099;-78
2021/10/29 05:55:26;;;;;;;33.00;25.80;;;;;;;10.25;84.64;100953.09;1694354;84;21055;-78
2021/10/29 05:57:54;;;;;;;39.00;27.45;;;;;;;10.14;84.44;100950.23;1645558;84;21060;-79
2021/10/29 06:00:29;;;;;;;30.00;23.10;;;;;;;10.04;84.57;100955.55;1694564;84;20952;-77
2021/10/29 06:02:56;;;;;;;37.00;27.55;;;;;;;9.98;84.85;100954.23;1652225;84;21083;-77
2021/10/29 06:05:22;;;;;;;43.52;31.15;;;;;;;9.92;85.17;100961.32;1694270;84;21062;-79
2021/10/29 06:07:51;;;;;;;37.00;30.02;;;;;;;9.94;85.59;100962.43;1694363;84;20956;-74
2021/10/29 06:10:19;;;;;;;67.95;47.85;;;;;;;9.98;86.08;100961.78;1654518;86;21040;-74
2021/10/29 06:12:45;;;;;;;43.68;34.50;;;;;;;10.08;86.55;100960.80;1688430;84;21863;-79
2021/10/29 06:15:15;;;;;;;46.73;36.40;;;;;;;10.14;86.44;100964.50;1694299;84;21003;-72
2021/10/29 06:17:42;;;;;;;49.75;36.42;;;;;;;10.16;86.47;100964.33;1682462;84;21042;-73
2021/10/29 06:20:11;;;;;;;44.60;30.40;;;;;;;10.18;86.67;100968.95;1694303;84;21019;-74
2021/10/29 06:22:57;;;;;;;35.40;30.50;;;;;;;10.25;86.86;100972.44;1690187;84;21031;-76
2021/10/29 06:25:14;;;;;;;44.80;28.32;;;;;;;10.26;86.86;100969.55;1668889;84;21185;-73
2021/10/29 06:30:08;;;;;;;40.28;29.92;;;;;;;10.30;87.19;100982.03;1640972;86;21537;-72
2021/10/29 06:32:35;;;;;;;46.35;32.90;;;;;;;10.32;87.35;100982.09;1640850;86;21033;-75
2021/10/29 06:35:02;;;;;;;44.05;31.62;;;;;;;10.34;87.61;100973.83;1666129;84;20988;-74
2021/10/29 06:37:28;;;;;;;32.73;28.50;;;;;;;10.38;87.88;100986.62;1681722;84;21123;-75
2021/10/29 06:39:55;;;;;;;37.17;26.25;;;;;;;10.44;88.23;100984.94;1689483;84;21095;-75
2021/10/29 06:42:27;;;;;;;35.30;25.95;;;;;;;10.55;89.30;100985.56;1694635;84;21102;-76
2021/10/29 07:01:00;;;;;;;30.70;26.52;;;;;;;11.22;91.09;101003.63;1695792;84;21488;-75
2021/10/29 07:03:18;;;;;;;37.03;25.85;;;;;;;11.33;91.15;101002.08;1651467;84;21144;-77
2021/10/29 07:41:05;;;;;;;25.77;22.40;;;;;;;12.30;90.34;101013.30;1695888;83;21019;-78
2021/10/29 07:43:36;;;;;;;31.57;24.43;;;;;;;12.33;90.02;101019.57;1698052;84;21514;-78
2021/10/29 07:46:02;;;;;;;26.73;23.45;;;;;;;12.37;90.01;101011.34;1692422;83;20902;-78
2021/10/29 07:48:30;;;;;;;32.10;26.45;;;;;;;12.45;89.98;101017.76;1690038;85;20957;-77
2021/10/29 07:50:56;;;;;;;27.00;23.87;;;;;;;12.54;89.70;101015.55;1688320;84;21069;-76
2021/10/29 07:53:25;;;;;;;29.10;25.80;;;;;;;12.59;89.37;101016.51;1666513;85;21028;-79
2021/10/29 07:55:51;;;;;;;30.10;25.62;;;;;;;12.65;88.98;101018.30;1662287;84;21101;-73
2021/10/29 07:58:18;;;;;;;29.07;23.15;;;;;;;12.70;88.63;101021.65;1645991;86;21136;-73
2021/10/29 08:00:45;;;;;;;26.60;22.60;;;;;;;12.77;88.46;101018.30;1618521;87;21031;-73
2021/10/29 08:03:12;;;;;;;30.20;24.52;;;;;;;12.83;88.14;101020.61;1639278;87;21060;-74
2021/10/29 08:05:39;;;;;;;31.77;25.95;;;;;;;12.88;87.67;101020.73;1658397;86;21111;-73
2021/10/29 08:08:06;;;;;;;39.35;26.80;;;;;;;12.90;87.35;101022.14;1640806;86;21239;-74
2021/10/29 08:10:37;;;;;;;33.13;24.32;;;;;;;12.92;87.04;101027.31;1665783;85;20996;-75
2021/10/29 08:13:04;;;;;;;28.00;24.30;;;;;;;12.93;86.82;101022.22;1641573;86;21502;-77
2021/10/29 08:15:34;;;;;;;21.68;17.42;;;;;;;12.95;86.67;101021.47;1646085;86;21064;-75
2021/10/29 08:18:01;;;;;;;25.08;20.02;;;;;;;13.02;86.61;101032.97;1637619;86;21043;-75
2021/10/29 08:20:27;;;;;;;19.07;15.32;;;;;;;13.04;86.30;101024.91;1690287;84;21158;-75
2021/10/29 08:22:53;;;;;;;16.55;14.53;;;;;;;13.11;85.99;101028.89;1687788;84;21000;-75
2021/10/29 08:25:21;;;;;;;17.98;14.78;;;;;;;13.14;85.86;101033.03;1641040;86;21023;-76
2021/10/29 08:27:47;;;;;;;16.30;13.95;;;;;;;13.15;85.52;101034.65;1607222;87;21079;-75
2021/10/29 08:30:14;;;;;;;19.42;15.88;;;;;;;13.13;85.47;101033.55;1674469;84;21079;-77
2021/10/29 08:32:42;;;;;;;15.20;13.60;;;;;;;13.14;85.45;101034.38;1694400;84;21104;-74
2021/10/29 08:35:10;;;;;;;16.67;14.63;;;;;;;13.22;85.48;101034.84;1663928;86;21064;-73
2021/10/29 08:37:37;;;;;;;16.42;13.22;;;;;;;13.30;85.21;101038.54;1644520;86;21066;-73
2021/10/29 08:40:06;;;;;;;18.62;15.40;;;;;;;13.36;84.83;101034.08;1678524;84;21059;-75
2021/10/29 08:42:32;;;;;;;15.15;13.08;;;;;;;13.37;84.54;101038.44;1659726;84;21018;-75
2021/10/29 08:45:01;;;;;;;15.35;13.68;;;;;;;13.38;84.13;101033.33;1638693;86;22237;-78
2021/10/29 08:47:28;;;;;;;13.88;12.47;;;;;;;13.37;84.14;101035.20;1666581;85;21022;-73
2021/10/29 08:49:54;;;;;;;20.25;15.32;;;;;;;13.43;84.07;101038.30;1654679;86;21343;-73
2021/10/29 08:52:24;;;;;;;19.70;15.58;;;;;;;13.49;84.02;101036.02;1650991;85;22035;-74
2021/10/29 08:54:53;;;;;;;17.67;14.20;;;;;;;13.60;83.90;101044.35;1676275;84;21535;-75
2021/10/29 08:57:19;;;;;;;14.83;13.28;;;;;;;13.71;83.42;101038.95;1667262;84;21908;-72
2021/10/29 08:59:49;;;;;;;20.08;15.23;;;;;;;13.78;82.92;101044.20;1685176;83;21559;-75
2021/10/29 09:04:56;;;;;;;15.63;13.98;;;;;;;14.03;81.77;101040.69;1681635;83;21051;-74
2021/10/29 09:07:54;;;;;;;17.52;15.70;;;;;;;14.05;80.68;101034.52;1678980;83;21067;-73
2021/10/29 09:33:09;;;;;;;18.92;16.95;;;;;;;14.66;76.30;101020.28;1689788;84;21006;-73
2021/10/29 09:35:24;;;;;;;17.05;15.13;;;;;;;14.66;76.10;101022.98;1669334;84;21509;-75
2021/10/29 09:38:07;;;;;;;22.93;15.35;;;;;;;14.66;76.05;101021.64;1665546;84;21067;-75
2021/10/29 09:40:59;;;;;;;18.52;15.88;;;;;;;14.65;75.49;101018.63;1689570;84;20891;-75
2021/10/29 09:43:25;;;;;;;18.25;14.00;;;;;;;14.67;75.66;101021.11;1673156;84;21531;-70
2021/10/29 09:46:04;;;;;;;16.00;14.33;;;;;;;14.74;74.97;101019.87;1694350;84;21047;-74
2021/10/29 09:48:49;;;;;;;19.40;16.45;;;;;;;14.78;74.25;101019.66;1688359;84;21571;-71
2021/10/29 09:51:21;;;;;;;15.30;13.70;;;;;;;14.84;74.33;101024.64;1692401;84;21490;-72
2021/10/29 09:54:04;;;;;;;25.55;16.23;;;;;;;14.97;73.45;101022.95;1684452;84;21541;-70
2021/10/29 09:58:58;;;;;;;22.70;18.30;;;;;;;15.08;72.13;101024.77;1684235;84;21078;-83
2021/10/29 10:01:27;;;;;;;16.20;12.78;;;;;;;15.11;72.13;101019.38;1684508;85;21115;-84
2021/10/29 10:03:53;;;;;;;16.65;14.03;;;;;;;15.18;71.78;101019.52;1683933;85;21919;-81
2021/10/29 10:06:24;;;;;;;15.30;13.70;;;;;;;15.25;71.43;101018.00;1676102;84;21017;-82
2021/10/29 10:08:57;;;;;;;15.18;13.32;;;;;;;15.28;70.84;101013.42;1657343;85;21005;-86
2021/10/29 10:11:26;;;;;;;16.53;14.03;;;;;;;15.27;70.08;101011.78;1632336;85;21122;-76
2021/10/29 10:13:54;;;;;;;19.12;15.38;;;;;;;15.23;70.16;101012.82;1636365;85;21316;-77
2021/10/29 10:16:22;;;;;;;19.50;13.38;;;;;;;15.19;70.03;101013.03;1662819;85;21190;-73
2021/10/29 10:18:49;;;;;;;16.55;13.98;;;;;;;15.21;70.25;101015.47;1628162;86;21100;-75
2021/10/29 10:21:19;;;;;;;15.85;12.88;;;;;;;15.30;70.24;101011.27;1689954;85;21106;-79
2021/10/29 10:23:48;;;;;;;19.32;14.35;;;;;;;15.37;70.00;101013.81;1690326;84;21740;-76
2021/10/29 10:26:25;;;;;;;19.17;12.28;;;;;;;15.47;69.85;101013.97;1686907;83;21038;-86
2021/10/29 10:46:20;;;;;;;22.52;16.37;;;;;;;15.53;67.37;101018.44;1693572;84;21059;-76
2021/10/29 10:54:19;;;;;;;22.07;18.15;;;;;;;15.53;67.18;101008.41;1693307;84;21014;-70
2021/10/29 10:57:10;;;;;;;20.72;16.23;;;;;;;15.50;67.13;101018.34;1685980;84;21270;-79
2021/10/29 11:11:18;;;;;;;17.35;15.48;;;;;;;15.46;66.99;101005.55;1688256;83;21218;-79
2021/10/29 11:13:57;;;;;;;17.35;15.00;;;;;;;15.50;67.06;101005.33;1688826;83;20999;-82
2021/10/29 11:16:32;;;;;;;15.40;13.80;;;;;;;15.55;66.54;101006.25;1679598;83;21148;-75
2021/10/29 11:19:15;;;;;;;18.65;14.33;;;;;;;15.56;66.17;101009.25;1689217;83;21544;-75
2021/10/29 11:21:54;;;;;;;14.65;12.90;;;;;;;15.58;66.04;101008.48;1644574;86;21041;-75
2021/10/29 11:24:38;;;;;;;16.93;14.03;;;;;;;15.63;65.81;101003.09;1668539;85;21901;-78
2021/10/29 11:27:15;;;;;;;19.52;13.93;;;;;;;15.68;65.72;101001.02;1668352;85;21717;-78
2021/10/29 11:29:52;;;;;;;15.40;13.40;;;;;;;15.75;65.62;101000.81;1656792;84;21015;-81
2021/10/29 11:32:25;;;;;;;17.85;13.90;;;;;;;15.83;65.41;101003.08;1696320;84;21101;-77
2021/10/29 11:34:59;;;;;;;23.25;16.25;;;;;;;15.90;65.09;100999.12;1669222;84;21258;-74
2021/10/29 11:37:34;;;;;;;18.98;14.58;;;;;;;15.98;64.79;100998.66;1684912;84;21141;-71
2021/10/29 11:40:00;;;;;;;14.07;12.25;;;;;;;16.11;64.68;100997.47;1658759;84;21067;-79
2021/10/29 11:42:28;;;;;;;14.20;12.20;;;;;;;16.25;64.07;101006.86;1696549;84;21014;-75
2021/10/29 11:44:57;;;;;;;15.55;11.48;;;;;;;16.33;63.05;100999.60;1696279;84;21667;-77
2021/10/29 11:47:23;;;;;;;23.25;15.38;;;;;;;16.41;62.83;101008.64;1669895;84;21011;-74
2021/10/29 11:49:50;;;;;;;19.82;14.33;;;;;;;16.46;62.39;101001.91;1696274;84;22352;-73
2021/10/29 11:52:19;;;;;;;20.68;16.17;;;;;;;16.49;62.40;101007.38;1696021;84;21535;-72
2021/10/29 11:54:48;;;;;;;16.62;13.85;;;;;;;16.49;61.80;101001.95;1682230;84;20960;-72
2021/10/29 11:57:31;;;;;;;16.60;12.15;;;;;;;16.43;61.56;100999.71;1692164;84;21714;-75
2021/10/29 12:07:51;;;;;;;29.48;22.17;;;;;;;16.43;61.23;100998.89;1670330;84;21027;-74
2021/10/29 12:10:21;;;;;;;18.55;15.48;;;;;;;16.47;60.98;100999.47;1694249;84;20940;-70
2021/10/29 12:12:52;;;;;;;18.70;13.10;;;;;;;16.51;60.87;101008.74;1682111;84;21047;-70
2021/10/29 12:15:22;;;;;;;23.52;13.60;;;;;;;16.56;60.68;101002.00;1694585;84;22337;-72
2021/10/29 12:18:02;;;;;;;19.30;14.05;;;;;;;16.64;60.45;100998.59;1682638;84;20957;-75
2021/10/29 12:20:50;;;;;;;21.30;12.70;;;;;;;16.78;60.42;101003.88;1659298;85;21043;-74
2021/10/29 12:23:22;;;;;;;16.60;12.18;;;;;;;16.86;59.72;101002.03;1656816;85;20987;-73
2021/10/29 12:30:54;;;;;;;19.48;13.75;;;;;;;17.20;58.87;100987.61;1666384;85;21604;-74
2021/10/29 12:33:41;;;;;;;16.75;11.90;;;;;;;17.25;58.20;100994.44;1666465;85;21011;-78
2021/10/29 12:58:52;;;;;;;25.45;17.17;;;;;;;17.42;58.48;100975.50;1704358;84;20996;-74
2021/10/29 13:04:21;;;;;;;16.32;11.30;;;;;;;17.53;57.52;100985.08;1654037;84;21069;-76
2021/10/29 13:06:53;;;;;;;14.05;10.45;;;;;;;17.48;57.78;100983.16;1668401;85;21480;-79
2021/10/29 13:09:24;;;;;;;13.85;9.65;;;;;;;17.49;57.94;100975.28;1694907;84;21155;-78
2021/10/29 13:12:04;;;;;;;17.25;11.35;;;;;;;17.56;57.73;100971.77;1683511;84;21522;-76
2021/10/29 13:14:37;;;;;;;14.40;10.50;;;;;;;17.58;57.56;100975.59;1648970;85;21062;-79
2021/10/29 13:17:06;;;;;;;19.82;12.47;;;;;;;17.49;57.46;100969.84;1662893;86;21006;-77
2021/10/29 13:35:50;;;;;;;18.07;14.50;;;;;;;16.84;58.19;100975.64;1695358;83;21335;-78
2021/10/29 14:00:10;;;;;;;19.82;11.70;;;;;;;16.28;61.36;100971.58;1682203;84;20964;-74
2021/10/29 14:02:52;;;;;;;27.52;15.13;;;;;;;16.23;61.69;100962.84;1686595;84;21084;-72
2021/10/29 14:24:34;;;;;;;20.43;14.15;;;;;;;15.84;63.55;100957.24;1691063;84;21042;-75
2021/10/29 14:34:40;;;;;;;32.88;16.17;;;;;;;15.44;65.03;100952.12;1660142;83;21524;-72
2021/10/29 14:37:18;;;;;;;28.70;18.10;;;;;;;15.35;65.40;100960.40;1659693;85;21021;-73
2021/10/29 14:39:58;;;;;;;48.73;20.17;;;;;;;15.27;65.61;100962.45;1654175;84;21117;-72
2021/10/29 14:42:30;;;;;;;33.40;20.17;;;;;;;15.25;65.89;100961.08;1664324;84;21268;-75
2021/10/29 14:45:01;;;;;;;30.12;20.85;;;;;;;15.18;66.16;100958.53;1659245;84;20911;-76
2021/10/29 14:47:37;;;;;;;31.55;17.85;;;;;;;15.14;66.34;100960.11;1676334;84;20996;-73
2021/10/29 14:50:13;;;;;;;34.23;20.97;;;;;;;15.13;66.49;100956.28;1669071;84;21080;-74
2021/10/29 15:00:59;;;;;;;34.78;21.70;;;;;;;14.99;66.73;100962.58;1695947;84;21078;-76
2021/10/29 15:05:57;;;;;;;54.30;29.85;;;;;;;14.93;66.91;100965.45;1695752;84;21067;-73
2021/10/29 15:27:21;;;;;;;42.65;30.90;;;;;;;14.09;70.59;100981.57;1667914;84;21022;-79
2021/10/29 15:29:53;;;;;;;43.25;33.28;;;;;;;14.00;71.32;100986.25;1690548;84;21536;-77
2021/10/29 15:43:35;;;;;;;41.02;29.30;;;;;;;13.36;75.38;100997.60;1689410;84;21000;-73